sensor_id;sensor_type;location;lat;lon;timestamp;P1;durP1;ratioP1;P2;durP2;ratioP2
42904;SDS011;28550;51.228;4.528;2023-06-10T00:01:55;13.30;;;11.90;;
42904;SDS011;28550;51.228;4.528;2023-06-10T00:04:24;15.45;;;11.70;;
42904;SDS011;28550;51.228;4.528;2023-06-10T00:06:51;16.65;;;12.55;;
42904;SDS011;28550;51.228;4.528;2023-06-10T00:09:17;14.27;;;11.95;;
42904;SDS011;28550;51.228;4.528;2023-06-10T00:11:43;14.50;;;12.35;;
42904;SDS011;28550;51.228;4.528;2023-06-10T00:14:11;13.10;;;11.90;;
42904;SDS011;28550;51.228;4.528;2023-06-10T00:16:37;13.35;;;11.95;;
42904;SDS011;28550;51.228;4.528;2023-06-10T00:19:03;16.92;;;12.23;;
42904;SDS011;28550;51.228;4.528;2023-06-10T00:21:30;13.88;;;12.15;;
42904;SDS011;28550;51.228;4.528;2023-06-10T00:24:03;14.73;;;12.90;;
42904;SDS011;28550;51.228;4.528;2023-06-10T00:26:31;16.23;;;13.20;;
42904;SDS011;28550;51.228;4.528;2023-06-10T00:29:04;18.45;;;12.90;;
42904;SDS011;28550;51.228;4.528;2023-06-10T00:31:30;14.82;;;12.70;;
42904;SDS011;28550;51.228;4.528;2023-06-10T00:33:56;14.45;;;12.30;;
42904;SDS011;28550;51.228;4.528;2023-06-10T00:36:23;15.38;;;12.25;;
42904;SDS011;28550;51.228;4.528;2023-06-10T00:38:52;17.02;;;12.95;;
42904;SDS011;28550;51.228;4.528;2023-06-10T00:41:18;15.70;;;13.65;;
42904;SDS011;28550;51.228;4.528;2023-06-10T00:43:44;14.15;;;12.52;;
42904;SDS011;28550;51.228;4.528;2023-06-10T00:46:21;17.52;;;12.75;;
42904;SDS011;28550;51.228;4.528;2023-06-10T00:48:50;13.98;;;12.32;;
42904;SDS011;28550;51.228;4.528;2023-06-10T00:51:18;17.67;;;12.13;;
42904;SDS011;28550;51.228;4.528;2023-06-10T00:53:44;15.10;;;13.23;;
42904;SDS011;28550;51.228;4.528;2023-06-10T00:56:10;15.82;;;13.32;;
42904;SDS011;28550;51.228;4.528;2023-06-10T00:58:36;19.80;;;13.70;;
42904;SDS011;28550;51.228;4.528;2023-06-10T01:01:05;16.13;;;12.38;;
42904;SDS011;28550;51.228;4.528;2023-06-10T01:03:30;18.55;;;13.57;;
42904;SDS011;28550;51.228;4.528;2023-06-10T01:06:01;13.82;;;12.43;;
42904;SDS011;28550;51.228;4.528;2023-06-10T01:08:45;14.80;;;13.20;;
42904;SDS011;28550;51.228;4.528;2023-06-10T01:11:34;14.98;;;13.48;;
42904;SDS011;28550;51.228;4.528;2023-06-10T01:14:05;15.38;;;13.80;;
42904;SDS011;28550;51.228;4.528;2023-06-10T01:16:37;15.68;;;13.20;;
42904;SDS011;28550;51.228;4.528;2023-06-10T01:19:06;14.07;;;12.60;;
42904;SDS011;28550;51.228;4.528;2023-06-10T01:21:32;19.60;;;13.27;;
42904;SDS011;28550;51.228;4.528;2023-06-10T01:23:58;15.10;;;13.15;;
42904;SDS011;28550;51.228;4.528;2023-06-10T01:26:31;16.33;;;13.65;;
42904;SDS011;28550;51.228;4.528;2023-06-10T01:32:23;17.92;;;14.68;;
42904;SDS011;28550;51.228;4.528;2023-06-10T01:34:56;15.82;;;14.23;;
42904;SDS011;28550;51.228;4.528;2023-06-10T01:37:23;16.83;;;13.55;;
42904;SDS011;28550;51.228;4.528;2023-06-10T01:39:52;16.40;;;13.80;;
42904;SDS011;28550;51.228;4.528;2023-06-10T01:42:30;14.30;;;12.88;;
42904;SDS011;28550;51.228;4.528;2023-06-10T01:44:57;16.17;;;14.00;;
42904;SDS011;28550;51.228;4.528;2023-06-10T01:47:28;14.90;;;13.32;;
42904;SDS011;28550;51.228;4.528;2023-06-10T01:49:54;16.30;;;14.13;;
42904;SDS011;28550;51.228;4.528;2023-06-10T01:52:20;15.73;;;13.30;;
42904;SDS011;28550;51.228;4.528;2023-06-10T01:54:45;17.95;;;12.95;;
42904;SDS011;28550;51.228;4.528;2023-06-10T01:57:11;14.60;;;13.10;;
42904;SDS011;28550;51.228;4.528;2023-06-10T01:59:49;19.35;;;15.00;;
42904;SDS011;28550;51.228;4.528;2023-06-10T02:02:15;16.70;;;13.93;;
42904;SDS011;28550;51.228;4.528;2023-06-10T02:04:40;15.68;;;14.25;;
42904;SDS011;28550;51.228;4.528;2023-06-10T02:07:06;16.42;;;14.40;;
42904;SDS011;28550;51.228;4.528;2023-06-10T02:09:32;16.95;;;13.90;;
42904;SDS011;28550;51.228;4.528;2023-06-10T02:12:00;17.83;;;14.50;;
42904;SDS011;28550;51.228;4.528;2023-06-10T02:14:27;19.63;;;14.68;;
42904;SDS011;28550;51.228;4.528;2023-06-10T02:16:53;15.82;;;13.95;;
42904;SDS011;28550;51.228;4.528;2023-06-10T02:19:22;18.83;;;14.60;;
42904;SDS011;28550;51.228;4.528;2023-06-10T02:21:48;16.58;;;14.60;;
42904;SDS011;28550;51.228;4.528;2023-06-10T02:24:17;18.85;;;14.50;;
42904;SDS011;28550;51.228;4.528;2023-06-10T02:26:43;17.27;;;13.98;;
42904;SDS011;28550;51.228;4.528;2023-06-10T02:29:08;18.17;;;15.25;;
42904;SDS011;28550;51.228;4.528;2023-06-10T02:31:34;15.77;;;14.20;;
42904;SDS011;28550;51.228;4.528;2023-06-10T02:34:06;18.20;;;14.80;;
42904;SDS011;28550;51.228;4.528;2023-06-10T02:36:35;16.92;;;14.90;;
42904;SDS011;28550;51.228;4.528;2023-06-10T02:39:01;14.85;;;13.32;;
42904;SDS011;28550;51.228;4.528;2023-06-10T02:41:34;15.75;;;13.82;;
42904;SDS011;28550;51.228;4.528;2023-06-10T02:43:59;16.95;;;15.00;;
42904;SDS011;28550;51.228;4.528;2023-06-10T02:46:25;15.77;;;13.75;;
42904;SDS011;28550;51.228;4.528;2023-06-10T02:48:59;16.55;;;14.95;;
42904;SDS011;28550;51.228;4.528;2023-06-10T02:51:26;17.02;;;14.88;;
42904;SDS011;28550;51.228;4.528;2023-06-10T02:53:53;16.00;;;14.30;;
42904;SDS011;28550;51.228;4.528;2023-06-10T02:56:38;18.30;;;14.43;;
42904;SDS011;28550;51.228;4.528;2023-06-10T02:59:06;16.27;;;14.60;;
42904;SDS011;28550;51.228;4.528;2023-06-10T03:01:33;17.30;;;13.48;;
42904;SDS011;28550;51.228;4.528;2023-06-10T03:04:02;17.77;;;14.20;;
42904;SDS011;28550;51.228;4.528;2023-06-10T03:06:31;19.60;;;15.60;;
42904;SDS011;28550;51.228;4.528;2023-06-10T03:08:59;18.42;;;15.27;;
42904;SDS011;28550;51.228;4.528;2023-06-10T03:11:25;16.55;;;14.85;;
42904;SDS011;28550;51.228;4.528;2023-06-10T03:13:52;17.90;;;15.48;;
42904;SDS011;28550;51.228;4.528;2023-06-10T03:16:19;16.13;;;14.43;;
42904;SDS011;28550;51.228;4.528;2023-06-10T03:18:45;17.55;;;15.68;;
42904;SDS011;28550;51.228;4.528;2023-06-10T03:21:11;17.15;;;15.32;;
42904;SDS011;28550;51.228;4.528;2023-06-10T03:23:37;20.00;;;15.38;;
42904;SDS011;28550;51.228;4.528;2023-06-10T03:26:03;18.00;;;15.73;;
42904;SDS011;28550;51.228;4.528;2023-06-10T03:28:30;18.15;;;15.20;;
42904;SDS011;28550;51.228;4.528;2023-06-10T03:30:56;21.40;;;15.75;;
42904;SDS011;28550;51.228;4.528;2023-06-10T03:33:22;17.65;;;14.48;;
42904;SDS011;28550;51.228;4.528;2023-06-10T03:35:51;19.15;;;15.50;;
42904;SDS011;28550;51.228;4.528;2023-06-10T03:38:16;18.45;;;15.85;;
42904;SDS011;28550;51.228;4.528;2023-06-10T03:40:42;21.00;;;15.23;;
42904;SDS011;28550;51.228;4.528;2023-06-10T03:43:08;18.40;;;15.52;;
42904;SDS011;28550;51.228;4.528;2023-06-10T03:45:33;19.33;;;16.35;;
42904;SDS011;28550;51.228;4.528;2023-06-10T03:47:59;18.95;;;14.77;;
42904;SDS011;28550;51.228;4.528;2023-06-10T03:50:29;17.70;;;15.77;;
42904;SDS011;28550;51.228;4.528;2023-06-10T03:52:58;18.10;;;15.25;;
42904;SDS011;28550;51.228;4.528;2023-06-10T03:55:26;17.63;;;15.75;;
42904;SDS011;28550;51.228;4.528;2023-06-10T03:57:52;21.88;;;16.98;;
42904;SDS011;28550;51.228;4.528;2023-06-10T04:00:20;22.33;;;16.67;;
42904;SDS011;28550;51.228;4.528;2023-06-10T04:02:54;18.50;;;16.35;;
42904;SDS011;28550;51.228;4.528;2023-06-10T04:05:23;18.23;;;16.00;;
42904;SDS011;28550;51.228;4.528;2023-06-10T04:07:48;17.17;;;15.45;;
42904;SDS011;28550;51.228;4.528;2023-06-10T04:10:15;20.00;;;16.52;;
42904;SDS011;28550;51.228;4.528;2023-06-10T04:12:41;22.15;;;15.27;;
42904;SDS011;28550;51.228;4.528;2023-06-10T04:15:07;18.73;;;16.75;;
42904;SDS011;28550;51.228;4.528;2023-06-10T04:17:33;20.15;;;15.75;;
42904;SDS011;28550;51.228;4.528;2023-06-10T04:20:00;19.77;;;17.50;;
42904;SDS011;28550;51.228;4.528;2023-06-10T04:22:26;18.80;;;16.83;;
42904;SDS011;28550;51.228;4.528;2023-06-10T04:24:52;18.73;;;16.33;;
42904;SDS011;28550;51.228;4.528;2023-06-10T04:27:18;19.25;;;16.80;;
42904;SDS011;28550;51.228;4.528;2023-06-10T04:29:44;17.73;;;15.82;;
42904;SDS011;28550;51.228;4.528;2023-06-10T04:32:13;18.05;;;16.15;;
42904;SDS011;28550;51.228;4.528;2023-06-10T04:34:56;18.90;;;16.40;;
42904;SDS011;28550;51.228;4.528;2023-06-10T04:37:28;20.05;;;16.40;;
42904;SDS011;28550;51.228;4.528;2023-06-10T04:39:54;19.90;;;16.20;;
42904;SDS011;28550;51.228;4.528;2023-06-10T04:42:20;18.52;;;16.42;;
42904;SDS011;28550;51.228;4.528;2023-06-10T04:44:55;19.13;;;16.77;;
42904;SDS011;28550;51.228;4.528;2023-06-10T04:47:20;16.40;;;14.73;;
42904;SDS011;28550;51.228;4.528;2023-06-10T04:49:49;20.42;;;15.88;;
42904;SDS011;28550;51.228;4.528;2023-06-10T04:52:21;18.25;;;16.38;;
42904;SDS011;28550;51.228;4.528;2023-06-10T04:54:50;18.45;;;16.45;;
42904;SDS011;28550;51.228;4.528;2023-06-10T04:57:22;18.80;;;16.30;;
42904;SDS011;28550;51.228;4.528;2023-06-10T04:59:48;19.23;;;16.33;;
42904;SDS011;28550;51.228;4.528;2023-06-10T05:02:16;17.80;;;16.02;;
42904;SDS011;28550;51.228;4.528;2023-06-10T05:04:42;19.02;;;16.10;;
42904;SDS011;28550;51.228;4.528;2023-06-10T05:07:14;17.30;;;15.55;;
42904;SDS011;28550;51.228;4.528;2023-06-10T05:09:39;20.80;;;16.20;;
42904;SDS011;28550;51.228;4.528;2023-06-10T05:12:05;18.42;;;15.90;;
42904;SDS011;28550;51.228;4.528;2023-06-10T05:14:32;19.40;;;15.85;;
42904;SDS011;28550;51.228;4.528;2023-06-10T05:17:00;17.92;;;15.77;;
42904;SDS011;28550;51.228;4.528;2023-06-10T05:19:27;20.90;;;16.27;;
42904;SDS011;28550;51.228;4.528;2023-06-10T05:21:53;19.83;;;15.75;;
42904;SDS011;28550;51.228;4.528;2023-06-10T05:24:19;17.23;;;15.43;;
42904;SDS011;28550;51.228;4.528;2023-06-10T05:26:45;19.83;;;16.17;;
42904;SDS011;28550;51.228;4.528;2023-06-10T05:29:13;20.23;;;14.55;;
42904;SDS011;28550;51.228;4.528;2023-06-10T05:31:40;18.63;;;15.40;;
42904;SDS011;28550;51.228;4.528;2023-06-10T05:34:07;18.13;;;15.63;;
42904;SDS011;28550;51.228;4.528;2023-06-10T05:36:33;17.40;;;15.60;;
42904;SDS011;28550;51.228;4.528;2023-06-10T05:38:59;17.65;;;15.75;;
42904;SDS011;28550;51.228;4.528;2023-06-10T05:41:28;16.02;;;14.40;;
42904;SDS011;28550;51.228;4.528;2023-06-10T05:43:53;19.25;;;15.40;;
42904;SDS011;28550;51.228;4.528;2023-06-10T05:46:19;17.88;;;14.40;;
42904;SDS011;28550;51.228;4.528;2023-06-10T05:48:45;18.90;;;16.25;;
42904;SDS011;28550;51.228;4.528;2023-06-10T05:51:11;22.67;;;16.25;;
42904;SDS011;28550;51.228;4.528;2023-06-10T05:53:37;16.67;;;14.77;;
42904;SDS011;28550;51.228;4.528;2023-06-10T05:56:03;16.58;;;14.88;;
42904;SDS011;28550;51.228;4.528;2023-06-10T05:58:29;17.15;;;13.98;;
42904;SDS011;28550;51.228;4.528;2023-06-10T06:03:41;17.48;;;14.82;;
42904;SDS011;28550;51.228;4.528;2023-06-10T06:06:12;14.98;;;13.10;;
42904;SDS011;28550;51.228;4.528;2023-06-10T06:08:46;20.30;;;14.73;;
42904;SDS011;28550;51.228;4.528;2023-06-10T06:11:15;18.95;;;14.77;;
42904;SDS011;28550;51.228;4.528;2023-06-10T06:13:40;16.42;;;14.10;;
42904;SDS011;28550;51.228;4.528;2023-06-10T06:16:07;18.65;;;14.57;;
42904;SDS011;28550;51.228;4.528;2023-06-10T06:18:33;18.48;;;14.20;;
42904;SDS011;28550;51.228;4.528;2023-06-10T06:20:59;19.05;;;14.80;;
42904;SDS011;28550;51.228;4.528;2023-06-10T06:23:28;18.73;;;14.20;;
42904;SDS011;28550;51.228;4.528;2023-06-10T06:25:54;16.63;;;14.52;;
42904;SDS011;28550;51.228;4.528;2023-06-10T06:28:19;16.75;;;13.95;;
42904;SDS011;28550;51.228;4.528;2023-06-10T06:30:47;15.68;;;14.00;;
42904;SDS011;28550;51.228;4.528;2023-06-10T06:33:13;17.52;;;14.43;;
42904;SDS011;28550;51.228;4.528;2023-06-10T06:36:14;20.63;;;14.20;;
42904;SDS011;28550;51.228;4.528;2023-06-10T06:38:39;15.73;;;13.90;;
42904;SDS011;28550;51.228;4.528;2023-06-10T06:41:08;19.85;;;13.85;;
42904;SDS011;28550;51.228;4.528;2023-06-10T06:43:46;17.02;;;14.68;;
42904;SDS011;28550;51.228;4.528;2023-06-10T06:46:11;19.27;;;13.50;;
42904;SDS011;28550;51.228;4.528;2023-06-10T06:48:37;15.88;;;13.57;;
42904;SDS011;28550;51.228;4.528;2023-06-10T06:51:03;14.60;;;13.13;;
42904;SDS011;28550;51.228;4.528;2023-06-10T06:53:29;14.73;;;12.07;;
42904;SDS011;28550;51.228;4.528;2023-06-10T06:55:57;15.55;;;12.73;;
42904;SDS011;28550;51.228;4.528;2023-06-10T06:58:26;17.98;;;13.40;;
42904;SDS011;28550;51.228;4.528;2023-06-10T07:00:52;14.75;;;13.02;;
42904;SDS011;28550;51.228;4.528;2023-06-10T07:03:26;18.77;;;12.75;;
42904;SDS011;28550;51.228;4.528;2023-06-10T07:06:01;13.52;;;12.23;;
42904;SDS011;28550;51.228;4.528;2023-06-10T07:08:27;14.48;;;11.82;;
42904;SDS011;28550;51.228;4.528;2023-06-10T07:10:54;20.67;;;11.98;;
42904;SDS011;28550;51.228;4.528;2023-06-10T07:13:25;15.82;;;12.30;;
42904;SDS011;28550;51.228;4.528;2023-06-10T07:15:51;16.58;;;11.93;;
42904;SDS011;28550;51.228;4.528;2023-06-10T07:18:17;15.18;;;11.32;;
42904;SDS011;28550;51.228;4.528;2023-06-10T07:21:01;12.85;;;11.38;;
42904;SDS011;28550;51.228;4.528;2023-06-10T07:23:26;20.02;;;12.05;;
42904;SDS011;28550;51.228;4.528;2023-06-10T07:25:52;11.73;;;10.32;;
42904;SDS011;28550;51.228;4.528;2023-06-10T07:28:18;11.73;;;10.52;;
42904;SDS011;28550;51.228;4.528;2023-06-10T07:30:50;13.15;;;10.38;;
42904;SDS011;28550;51.228;4.528;2023-06-10T07:33:16;13.52;;;10.30;;
42904;SDS011;28550;51.228;4.528;2023-06-10T07:35:44;12.82;;;11.05;;
42904;SDS011;28550;51.228;4.528;2023-06-10T07:38:16;11.30;;;10.20;;
42904;SDS011;28550;51.228;4.528;2023-06-10T07:40:45;12.70;;;10.10;;
42904;SDS011;28550;51.228;4.528;2023-06-10T07:43:18;12.68;;;10.70;;
42904;SDS011;28550;51.228;4.528;2023-06-10T07:45:44;15.05;;;10.32;;
42904;SDS011;28550;51.228;4.528;2023-06-10T07:48:10;14.60;;;10.70;;
42904;SDS011;28550;51.228;4.528;2023-06-10T07:50:36;11.98;;;10.77;;
42904;SDS011;28550;51.228;4.528;2023-06-10T07:53:04;12.25;;;10.82;;
42904;SDS011;28550;51.228;4.528;2023-06-10T07:55:30;12.00;;;10.80;;
42904;SDS011;28550;51.228;4.528;2023-06-10T08:00:45;13.70;;;10.85;;
42904;SDS011;28550;51.228;4.528;2023-06-10T08:03:11;11.65;;;9.88;;
42904;SDS011;28550;51.228;4.528;2023-06-10T08:05:39;11.38;;;9.75;;
42904;SDS011;28550;51.228;4.528;2023-06-10T08:08:08;11.52;;;9.55;;
42904;SDS011;28550;51.228;4.528;2023-06-10T08:10:33;12.10;;;9.88;;
42904;SDS011;28550;51.228;4.528;2023-06-10T08:12:59;12.50;;;10.25;;
42904;SDS011;28550;51.228;4.528;2023-06-10T08:18:24;12.57;;;9.05;;
42904;SDS011;28550;51.228;4.528;2023-06-10T08:20:59;15.38;;;10.30;;
42904;SDS011;28550;51.228;4.528;2023-06-10T08:23:25;13.85;;;10.05;;
42904;SDS011;28550;51.228;4.528;2023-06-10T08:25:51;12.15;;;10.93;;
42904;SDS011;28550;51.228;4.528;2023-06-10T08:28:18;13.27;;;10.02;;
42904;SDS011;28550;51.228;4.528;2023-06-10T08:30:43;14.40;;;10.00;;
42904;SDS011;28550;51.228;4.528;2023-06-10T08:33:09;12.32;;;9.32;;
42904;SDS011;28550;51.228;4.528;2023-06-10T08:35:35;14.45;;;9.57;;
42904;SDS011;28550;51.228;4.528;2023-06-10T08:38:04;12.32;;;9.10;;
42904;SDS011;28550;51.228;4.528;2023-06-10T08:40:30;16.38;;;9.18;;
42904;SDS011;28550;51.228;4.528;2023-06-10T08:45:46;10.43;;;9.05;;
42904;SDS011;28550;51.228;4.528;2023-06-10T08:48:31;9.85;;;8.90;;
42904;SDS011;28550;51.228;4.528;2023-06-10T08:51:02;10.77;;;9.63;;
42904;SDS011;28550;51.228;4.528;2023-06-10T08:53:36;10.00;;;8.90;;
42904;SDS011;28550;51.228;4.528;2023-06-10T08:56:09;13.43;;;9.40;;
42904;SDS011;28550;51.228;4.528;2023-06-10T08:58:37;11.68;;;8.98;;
42904;SDS011;28550;51.228;4.528;2023-06-10T09:01:09;9.68;;;8.73;;
42904;SDS011;28550;51.228;4.528;2023-06-10T09:03:39;9.63;;;7.65;;
42904;SDS011;28550;51.228;4.528;2023-06-10T09:06:24;8.70;;;7.80;;
42904;SDS011;28550;51.228;4.528;2023-06-10T09:08:51;10.13;;;8.68;;
42904;SDS011;28550;51.228;4.528;2023-06-10T09:11:17;11.20;;;8.73;;
42904;SDS011;28550;51.228;4.528;2023-06-10T09:13:43;10.43;;;8.60;;
42904;SDS011;28550;51.228;4.528;2023-06-10T09:16:21;12.00;;;9.40;;
42904;SDS011;28550;51.228;4.528;2023-06-10T09:19:18;9.95;;;8.95;;
42904;SDS011;28550;51.228;4.528;2023-06-10T09:21:46;8.93;;;8.02;;
42904;SDS011;28550;51.228;4.528;2023-06-10T09:24:11;9.98;;;8.98;;
42904;SDS011;28550;51.228;4.528;2023-06-10T09:26:37;9.85;;;8.75;;
42904;SDS011;28550;51.228;4.528;2023-06-10T09:29:04;10.55;;;8.63;;
42904;SDS011;28550;51.228;4.528;2023-06-10T09:31:32;10.93;;;8.73;;
42904;SDS011;28550;51.228;4.528;2023-06-10T09:34:07;11.85;;;9.40;;
42904;SDS011;28550;51.228;4.528;2023-06-10T09:36:49;9.10;;;8.20;;
42904;SDS011;28550;51.228;4.528;2023-06-10T09:39:19;12.43;;;8.48;;
42904;SDS011;28550;51.228;4.528;2023-06-10T09:41:47;10.98;;;8.00;;
42904;SDS011;28550;51.228;4.528;2023-06-10T09:44:20;8.73;;;7.90;;
42904;SDS011;28550;51.228;4.528;2023-06-10T09:52:21;10.85;;;8.55;;
42904;SDS011;28550;51.228;4.528;2023-06-10T09:54:53;9.05;;;7.75;;
42904;SDS011;28550;51.228;4.528;2023-06-10T09:57:26;10.52;;;8.38;;
42904;SDS011;28550;51.228;4.528;2023-06-10T09:59:57;10.15;;;8.48;;
42904;SDS011;28550;51.228;4.528;2023-06-10T10:02:23;8.50;;;7.70;;
42904;SDS011;28550;51.228;4.528;2023-06-10T10:04:50;9.38;;;8.48;;
42904;SDS011;28550;51.228;4.528;2023-06-10T10:07:18;9.77;;;8.35;;
42904;SDS011;28550;51.228;4.528;2023-06-10T10:09:48;9.70;;;8.70;;
42904;SDS011;28550;51.228;4.528;2023-06-10T10:12:20;9.77;;;7.55;;
42904;SDS011;28550;51.228;4.528;2023-06-10T10:14:46;10.88;;;8.40;;
42904;SDS011;28550;51.228;4.528;2023-06-10T10:17:14;8.73;;;7.80;;
42904;SDS011;28550;51.228;4.528;2023-06-10T10:19:43;8.98;;;8.10;;
42904;SDS011;28550;51.228;4.528;2023-06-10T10:22:25;10.15;;;7.35;;
42904;SDS011;28550;51.228;4.528;2023-06-10T10:25:01;9.77;;;8.07;;
42904;SDS011;28550;51.228;4.528;2023-06-10T10:27:34;8.68;;;7.75;;
42904;SDS011;28550;51.228;4.528;2023-06-10T10:39:48;7.78;;;7.07;;
42904;SDS011;28550;51.228;4.528;2023-06-10T10:42:36;10.43;;;7.72;;
42904;SDS011;28550;51.228;4.528;2023-06-10T10:45:24;16.05;;;8.95;;
42904;SDS011;28550;51.228;4.528;2023-06-10T10:47:55;14.93;;;8.48;;
42904;SDS011;28550;51.228;4.528;2023-06-10T10:50:22;8.60;;;7.72;;
42904;SDS011;28550;51.228;4.528;2023-06-10T10:53:06;10.00;;;8.38;;
42904;SDS011;28550;51.228;4.528;2023-06-10T10:55:32;9.07;;;7.85;;
42904;SDS011;28550;51.228;4.528;2023-06-10T11:22:07;12.82;;;7.90;;
42904;SDS011;28550;51.228;4.528;2023-06-10T11:24:34;12.95;;;8.52;;
42904;SDS011;28550;51.228;4.528;2023-06-10T11:29:57;7.85;;;7.05;;
42904;SDS011;28550;51.228;4.528;2023-06-10T11:32:43;9.10;;;8.10;;
42904;SDS011;28550;51.228;4.528;2023-06-10T11:35:09;8.20;;;7.45;;
42904;SDS011;28550;51.228;4.528;2023-06-10T11:37:39;9.95;;;7.22;;
42904;SDS011;28550;51.228;4.528;2023-06-10T11:40:07;7.53;;;6.82;;
42904;SDS011;28550;51.228;4.528;2023-06-10T11:42:42;16.63;;;6.97;;
42904;SDS011;28550;51.228;4.528;2023-06-10T11:45:14;17.45;;;8.45;;
42904;SDS011;28550;51.228;4.528;2023-06-10T11:48:03;15.25;;;7.80;;
42904;SDS011;28550;51.228;4.528;2023-06-10T11:51:00;8.52;;;7.70;;
42904;SDS011;28550;51.228;4.528;2023-06-10T11:53:26;9.73;;;8.07;;
42904;SDS011;28550;51.228;4.528;2023-06-10T11:55:56;8.52;;;7.82;;
42904;SDS011;28550;51.228;4.528;2023-06-10T11:58:22;11.73;;;8.02;;
42904;SDS011;28550;51.228;4.528;2023-06-10T12:00:50;15.55;;;8.38;;
42904;SDS011;28550;51.228;4.528;2023-06-10T12:03:18;8.02;;;7.22;;
42904;SDS011;28550;51.228;4.528;2023-06-10T12:06:01;8.95;;;7.65;;
42904;SDS011;28550;51.228;4.528;2023-06-10T12:08:28;8.70;;;7.85;;
42904;SDS011;28550;51.228;4.528;2023-06-10T12:10:54;8.45;;;7.70;;
42904;SDS011;28550;51.228;4.528;2023-06-10T12:13:23;11.45;;;8.00;;
42904;SDS011;28550;51.228;4.528;2023-06-10T12:16:07;12.27;;;8.50;;
42904;SDS011;28550;51.228;4.528;2023-06-10T12:18:33;10.43;;;7.68;;
42904;SDS011;28550;51.228;4.528;2023-06-10T12:20:59;10.90;;;8.02;;
42904;SDS011;28550;51.228;4.528;2023-06-10T12:23:29;8.73;;;7.88;;
42904;SDS011;28550;51.228;4.528;2023-06-10T12:25:56;8.73;;;7.93;;
42904;SDS011;28550;51.228;4.528;2023-06-10T12:28:28;8.45;;;7.65;;
42904;SDS011;28550;51.228;4.528;2023-06-10T12:33:47;10.00;;;7.88;;
42904;SDS011;28550;51.228;4.528;2023-06-10T12:36:19;8.85;;;7.95;;
42904;SDS011;28550;51.228;4.528;2023-06-10T12:38:47;9.35;;;7.53;;
42904;SDS011;28550;51.228;4.528;2023-06-10T12:44:34;8.57;;;7.80;;
42904;SDS011;28550;51.228;4.528;2023-06-10T12:50:29;8.82;;;8.10;;
42904;SDS011;28550;51.228;4.528;2023-06-10T12:53:17;9.07;;;7.78;;
42904;SDS011;28550;51.228;4.528;2023-06-10T12:56:10;8.90;;;7.90;;
42904;SDS011;28550;51.228;4.528;2023-06-10T12:58:43;8.88;;;8.07;;
42904;SDS011;28550;51.228;4.528;2023-06-10T13:01:11;8.25;;;7.55;;
42904;SDS011;28550;51.228;4.528;2023-06-10T13:03:40;14.63;;;8.35;;
42904;SDS011;28550;51.228;4.528;2023-06-10T13:06:07;7.70;;;7.10;;
42904;SDS011;28550;51.228;4.528;2023-06-10T13:08:38;10.52;;;7.68;;
42904;SDS011;28550;51.228;4.528;2023-06-10T13:14:01;9.93;;;7.35;;
42904;SDS011;28550;51.228;4.528;2023-06-10T13:16:32;8.48;;;7.43;;
42904;SDS011;28550;51.228;4.528;2023-06-10T13:19:00;8.35;;;7.55;;
42904;SDS011;28550;51.228;4.528;2023-06-10T13:21:38;7.70;;;7.00;;
42904;SDS011;28550;51.228;4.528;2023-06-10T13:24:19;8.88;;;7.60;;
42904;SDS011;28550;51.228;4.528;2023-06-10T13:26:52;9.38;;;7.50;;
42904;SDS011;28550;51.228;4.528;2023-06-10T13:29:21;8.63;;;7.80;;
42904;SDS011;28550;51.228;4.528;2023-06-10T13:31:47;8.48;;;7.57;;
42904;SDS011;28550;51.228;4.528;2023-06-10T13:34:22;8.27;;;7.13;;
42904;SDS011;28550;51.228;4.528;2023-06-10T13:37:07;9.30;;;7.15;;
42904;SDS011;28550;51.228;4.528;2023-06-10T13:42:09;8.40;;;6.85;;
42904;SDS011;28550;51.228;4.528;2023-06-10T13:44:50;9.90;;;7.15;;
42904;SDS011;28550;51.228;4.528;2023-06-10T13:47:16;11.02;;;7.47;;
42904;SDS011;28550;51.228;4.528;2023-06-10T13:49:42;7.90;;;7.10;;
42904;SDS011;28550;51.228;4.528;2023-06-10T13:52:08;8.05;;;7.20;;
42904;SDS011;28550;51.228;4.528;2023-06-10T13:57:45;8.40;;;7.30;;
42904;SDS011;28550;51.228;4.528;2023-06-10T14:03:32;8.40;;;7.70;;
42904;SDS011;28550;51.228;4.528;2023-06-10T14:06:01;8.25;;;7.45;;
42904;SDS011;28550;51.228;4.528;2023-06-10T14:08:28;8.98;;;7.57;;
42904;SDS011;28550;51.228;4.528;2023-06-10T14:10:54;8.45;;;7.65;;
42904;SDS011;28550;51.228;4.528;2023-06-10T14:13:19;8.38;;;7.53;;
42904;SDS011;28550;51.228;4.528;2023-06-10T14:15:45;9.63;;;7.13;;
42904;SDS011;28550;51.228;4.528;2023-06-10T14:18:17;8.20;;;7.35;;
42904;SDS011;28550;51.228;4.528;2023-06-10T14:20:56;9.00;;;8.05;;
42904;SDS011;28550;51.228;4.528;2023-06-10T14:23:22;9.35;;;7.78;;
42904;SDS011;28550;51.228;4.528;2023-06-10T14:28:56;10.18;;;7.70;;
42904;SDS011;28550;51.228;4.528;2023-06-10T14:31:28;8.10;;;7.32;;
42904;SDS011;28550;51.228;4.528;2023-06-10T14:33:54;8.77;;;7.87;;
42904;SDS011;28550;51.228;4.528;2023-06-10T14:36:21;9.18;;;8.27;;
42904;SDS011;28550;51.228;4.528;2023-06-10T14:38:52;10.02;;;8.32;;
42904;SDS011;28550;51.228;4.528;2023-06-10T14:41:28;7.80;;;7.10;;
42904;SDS011;28550;51.228;4.528;2023-06-10T14:44:12;8.07;;;7.35;;
42904;SDS011;28550;51.228;4.528;2023-06-10T14:46:37;9.00;;;7.43;;
42904;SDS011;28550;51.228;4.528;2023-06-10T14:49:03;10.02;;;7.90;;
42904;SDS011;28550;51.228;4.528;2023-06-10T14:51:29;7.05;;;6.45;;
42904;SDS011;28550;51.228;4.528;2023-06-10T14:53:55;7.97;;;7.00;;
42904;SDS011;28550;51.228;4.528;2023-06-10T14:56:20;8.40;;;7.40;;
42904;SDS011;28550;51.228;4.528;2023-06-10T14:58:46;10.55;;;7.90;;
42904;SDS011;28550;51.228;4.528;2023-06-10T15:01:11;9.65;;;7.78;;
42904;SDS011;28550;51.228;4.528;2023-06-10T15:03:37;8.50;;;7.55;;
42904;SDS011;28550;51.228;4.528;2023-06-10T15:06:03;10.48;;;7.80;;
42904;SDS011;28550;51.228;4.528;2023-06-10T15:08:29;9.02;;;7.57;;
42904;SDS011;28550;51.228;4.528;2023-06-10T15:10:57;7.80;;;7.13;;
42904;SDS011;28550;51.228;4.528;2023-06-10T15:13:27;8.30;;;7.60;;
42904;SDS011;28550;51.228;4.528;2023-06-10T15:15:53;8.45;;;7.45;;
42904;SDS011;28550;51.228;4.528;2023-06-10T15:18:18;8.60;;;7.40;;
42904;SDS011;28550;51.228;4.528;2023-06-10T15:20:44;10.60;;;7.55;;
42904;SDS011;28550;51.228;4.528;2023-06-10T15:23:10;14.85;;;8.10;;
42904;SDS011;28550;51.228;4.528;2023-06-10T15:28:24;7.75;;;7.15;;
42904;SDS011;28550;51.228;4.528;2023-06-10T15:30:49;9.32;;;7.15;;
42904;SDS011;28550;51.228;4.528;2023-06-10T15:33:18;8.98;;;7.03;;
42904;SDS011;28550;51.228;4.528;2023-06-10T15:39:09;8.63;;;7.72;;
42904;SDS011;28550;51.228;4.528;2023-06-10T15:41:51;12.50;;;8.50;;
42904;SDS011;28550;51.228;4.528;2023-06-10T15:44:26;9.75;;;8.75;;
42904;SDS011;28550;51.228;4.528;2023-06-10T15:46:53;9.45;;;8.68;;
42904;SDS011;28550;51.228;4.528;2023-06-10T15:49:19;8.65;;;7.75;;
42904;SDS011;28550;51.228;4.528;2023-06-10T15:51:45;8.80;;;7.90;;
42904;SDS011;28550;51.228;4.528;2023-06-10T15:54:11;8.63;;;7.25;;
42904;SDS011;28550;51.228;4.528;2023-06-10T15:56:37;10.90;;;7.38;;
42904;SDS011;28550;51.228;4.528;2023-06-10T15:59:05;8.32;;;7.45;;
42904;SDS011;28550;51.228;4.528;2023-06-10T16:01:31;8.40;;;7.38;;
42904;SDS011;28550;51.228;4.528;2023-06-10T16:03:58;9.15;;;7.05;;
42904;SDS011;28550;51.228;4.528;2023-06-10T16:06:24;10.23;;;7.53;;
42904;SDS011;28550;51.228;4.528;2023-06-10T16:08:50;7.63;;;7.00;;
42904;SDS011;28550;51.228;4.528;2023-06-10T16:11:16;7.88;;;7.22;;